Aérodrome :
LOGIN :

S'inscrire | Disclaimer

   EN    FR    IT 

 










Légende :    VFR   VFR Marginal   IFR   IFR Intensif   IFR Très Intensif
Visi : 
Plafond : 
>= 8 km
>= 3000ft
5 à 8 km
1000 à 3000 ft
1500m à 5 km
500 à 1000 ft
800 à 1500m
200 à 500 ft
< 800m
< 200 ft
Symboles :   Orages  Brouillard  Fortes neiges  Fortes précipitations  Vent > 20 kt
SIGMETs :   Divers  Orages  Givrage  Turbulence  Onde Orograph.  Cendres Volcan.






- Altitude de l'aérodrome : 245 ft
- Code IATA : BIQ


LFBZ - Biarritz

DERNIER METAR :
  • 221500Z AUTO 27003KT 180V340 CAVOK 15/10 Q1033 TEMPO 2000 BR BKN001

METARs EXPIRÉS :
  • 221430Z AUTO 33010KT 300V360 CAVOK 14/10 Q1034 TEMPO 2000 BR BKN001
  • 221400Z AUTO 32009KT 290V350 CAVOK 14/09 Q1033 NOSIG
  • 221330Z AUTO 28008KT 240V320 CAVOK 15/09 Q1033 NOSIG
  • 221300Z AUTO 27007KT 240V300 CAVOK 16/09 Q1033 NOSIG
  • 221230Z AUTO 27004KT 210V330 CAVOK 15/09 Q1033 NOSIG

TAF TAF LFBZ
Valide du 22 à 12h jusqu'au 23 à 12h UTC


221100Z 2212/2312 VRB02KT CAVOK
BECMG 2212/2214 29006KT
PROB40 2216/2218 2000 BR BKN001
BECMG 2222/2224 11004KT 0800 FG VV///
BECMG 2308/2311 8000 NSW SCT003



MET'MAP, la Météo Aéronautique d'un coup d'oeil ! - Copyright ORBIFLY Décembre 2007 - Disclaimer

ORBIFLY MET'MAP TEAM :

Programmation & Développement : Alexandra Zaïnal
Sur une idée originale de : Baudouin d'Aumeries
Assistance à la programmation : Marc-Olivier Méhu
Soutien technique & logistique : Manuel Goepfert

Contact : metmap@orbifly.com




SOURCES & CREDITS :

   NOAA